Time;durP1;ratioP1;P1;durP2;ratioP2;P2;SDS_P1;SDS_P2;PMS_P1;PMS_P2;Temp;Humidity;BMP_temperature;BMP_pressure;BME280_temperature;BME280_humidity;BME280_pressure;Samples;Min_cycle;Max_cycle;Signal;HPM_P1;HPM_P2
2021/12/29 00:02:01;;;;;;;33.20;16.20;;;;;;;-4.48;76.30;100847.65;106084;1269;58929;-73
2021/12/29 00:04:31;;;;;;;31.20;15.90;;;;;;;-4.45;76.54;100848.98;106030;1272;75393;-72
2021/12/29 00:07:02;;;;;;;33.40;16.40;;;;;;;-4.42;77.30;100853.55;106108;1268;72819;-74
2021/12/29 00:09:33;;;;;;;19.90;11.40;;;;;;;-4.39;77.80;100856.92;106111;1271;70214;-72
2021/12/29 00:12:03;;;;;;;26.50;13.90;;;;;;;-4.40;77.31;100855.23;106136;1271;71999;-72
2021/12/29 00:14:32;;;;;;;40.70;18.20;;;;;;;-4.43;77.40;100854.05;106117;1269;59598;-72
2021/12/29 00:17:02;;;;;;;40.10;17.60;;;;;;;-4.42;77.72;100865.80;106118;1269;58981;-74
2021/12/29 00:19:32;;;;;;;36.00;17.90;;;;;;;-4.41;77.93;100869.70;105977;1271;74554;-72
2021/12/29 00:22:01;;;;;;;39.50;17.90;;;;;;;-4.42;77.92;100873.60;105924;1271;72121;-74
2021/12/29 00:24:29;;;;;;;34.30;16.80;;;;;;;-4.50;77.42;100874.16;105960;1268;70925;-73
2021/12/29 00:26:58;;;;;;;37.60;18.40;;;;;;;-4.51;77.45;100875.03;105798;1271;74720;-73
2021/12/29 00:29:27;;;;;;;40.10;19.70;;;;;;;-4.54;77.54;100877.27;105871;1269;59625;-68
2021/12/29 00:32:16;;;;;;;35.40;18.50;;;;;;;-4.51;77.86;100876.23;105971;1268;59673;-70
2021/12/29 00:35:27;;;;;;;44.00;20.80;;;;;;;-4.51;77.83;100873.85;105755;1271;73799;-73
2021/12/29 00:38:15;;;;;;;39.90;19.20;;;;;;;-4.49;77.52;100870.94;106022;1269;72681;-74
2021/12/29 00:41:04;;;;;;;31.40;15.90;;;;;;;-4.44;77.52;100865.80;105917;1269;69540;-72
2021/12/29 00:43:51;;;;;;;24.10;10.80;;;;;;;-4.40;77.63;100865.09;105828;1272;72931;-72
2021/12/29 00:47:01;;;;;;;38.00;19.30;;;;;;;-4.47;77.51;100868.04;105554;1272;62662;-72
2021/12/29 00:49:33;;;;;;;37.00;18.90;;;;;;;-4.42;77.72;100865.96;106061;1269;60468;-73
2021/12/29 00:52:07;;;;;;;43.30;21.10;;;;;;;-4.40;77.46;100866.61;105949;1271;72649;-73
2021/12/29 00:54:40;;;;;;;40.50;20.70;;;;;;;-4.37;77.97;100864.20;106086;1270;71258;-75
2021/12/29 00:57:10;;;;;;;41.10;20.00;;;;;;;-4.37;77.89;100861.83;105842;1271;66980;-73
2021/12/29 00:59:39;;;;;;;36.50;18.20;;;;;;;-4.34;77.93;100858.40;105964;1269;74350;-74
2021/12/29 01:02:08;;;;;;;40.50;19.10;;;;;;;-4.35;77.29;100857.56;106150;1269;62232;-72
2021/12/29 01:04:38;;;;;;;39.10;19.60;;;;;;;-4.32;77.66;100861.77;105933;1269;61061;-75
2021/12/29 01:07:06;;;;;;;38.40;18.70;;;;;;;-4.31;77.27;100856.33;106121;1270;73611;-72
2021/12/29 01:09:36;;;;;;;33.70;19.50;;;;;;;-4.28;76.85;100848.83;106069;1269;72232;-72
2021/12/29 01:12:05;;;;;;;35.90;19.50;;;;;;;-4.27;76.88;100846.42;106076;1271;71123;-71
2021/12/29 01:14:35;;;;;;;38.90;19.50;;;;;;;-4.28;76.76;100847.13;105958;1265;72445;-72
2021/12/29 01:17:04;;;;;;;36.30;18.60;;;;;;;-4.34;76.51;100848.36;105858;1271;62190;-71
2021/12/29 01:19:33;;;;;;;37.50;19.20;;;;;;;-4.41;76.79;100850.65;105912;1272;61175;-72
2021/12/29 01:22:03;;;;;;;39.50;19.90;;;;;;;-4.37;76.91;100855.38;105900;1269;74954;-71
2021/12/29 01:24:32;;;;;;;35.80;17.70;;;;;;;-4.34;77.47;100859.26;105916;1272;70488;-71
2021/12/29 01:27:02;;;;;;;40.20;19.30;;;;;;;-4.35;77.49;100856.55;105948;1268;70624;-71
2021/12/29 01:29:31;;;;;;;39.30;20.20;;;;;;;-4.37;76.89;100856.05;105968;1269;74318;-72
2021/12/29 01:32:00;;;;;;;39.20;20.20;;;;;;;-4.39;76.63;100852.33;105911;1272;59666;-71
2021/12/29 01:34:29;;;;;;;34.10;18.10;;;;;;;-4.43;76.82;100855.77;105950;1268;59455;-72
2021/12/29 01:36:58;;;;;;;41.10;19.10;;;;;;;-4.48;77.23;100857.84;105886;1268;72579;-72
2021/12/29 01:39:28;;;;;;;40.10;19.20;;;;;;;-4.42;77.93;100855.76;105845;1269;68948;-73
2021/12/29 01:41:59;;;;;;;40.90;19.00;;;;;;;-4.44;78.00;100852.54;105723;1272;70062;-70
2021/12/29 01:44:28;;;;;;;33.50;19.30;;;;;;;-4.51;77.24;100850.91;105858;1272;74444;-72
2021/12/29 01:46:58;;;;;;;36.00;18.20;;;;;;;-4.57;77.68;100848.90;105850;1272;59721;-71
2021/12/29 01:49:27;;;;;;;43.00;19.90;;;;;;;-4.58;77.22;100851.63;105811;1271;60513;-72
2021/12/29 01:52:10;;;;;;;36.50;19.80;;;;;;;-4.57;77.36;100848.22;105969;1268;74413;-69
2021/12/29 01:54:40;;;;;;;38.60;18.60;;;;;;;-4.56;77.60;100849.41;105766;1274;72417;-72
2021/12/29 01:57:10;;;;;;;39.50;17.70;;;;;;;-4.52;77.02;100852.27;105852;1273;69706;-72
2021/12/29 01:59:40;;;;;;;37.20;19.00;;;;;;;-4.48;77.26;100850.36;105841;1272;73525;-72
2021/12/29 02:02:14;;;;;;;37.60;19.20;;;;;;;-4.48;77.32;100850.70;105838;1270;59594;-72
2021/12/29 02:04:46;;;;;;;39.70;20.20;;;;;;;-4.48;77.58;100846.80;105859;1272;60537;-70
2021/12/29 02:07:15;;;;;;;39.40;18.30;;;;;;;-4.49;77.58;100838.12;105985;1272;72428;-73
2021/12/29 02:09:44;;;;;;;40.50;19.80;;;;;;;-4.46;77.80;100839.98;107524;1274;69871;-71
2021/12/29 02:12:16;;;;;;;39.00;20.00;;;;;;;-4.49;77.68;100838.30;106016;1272;69891;-75
2021/12/29 02:14:45;;;;;;;44.70;20.00;;;;;;;-4.54;77.45;100839.87;105726;1271;72454;-73
2021/12/29 02:17:14;;;;;;;36.20;18.60;;;;;;;-4.57;77.23;100833.27;105931;1270;59425;-73
2021/12/29 02:19:47;;;;;;;37.80;19.70;;;;;;;-4.59;77.30;100837.20;105937;1271;60050;-72
2021/12/29 02:24:55;;;;;;;38.80;20.30;;;;;;;-4.62;77.68;100831.95;105910;1269;72679;-73
2021/12/29 02:27:24;;;;;;;38.30;17.40;;;;;;;-4.55;77.16;100825.77;105798;1272;71771;-72
2021/12/29 02:29:53;;;;;;;40.60;19.50;;;;;;;-4.67;77.29;100823.48;105836;1271;71529;-72
2021/12/29 02:32:23;;;;;;;34.50;19.10;;;;;;;-4.69;77.67;100817.55;106015;1270;59653;-73
2021/12/29 02:34:51;;;;;;;42.50;18.60;;;;;;;-4.62;76.95;100815.79;105812;1272;60503;-72
2021/12/29 02:37:22;;;;;;;31.70;17.30;;;;;;;-4.58;76.70;100814.24;105930;1269;75439;-73
2021/12/29 02:39:52;;;;;;;39.20;18.70;;;;;;;-4.60;76.38;100810.84;105782;1272;71376;-74
2021/12/29 02:42:26;;;;;;;34.30;18.20;;;;;;;-4.63;77.24;100807.14;106077;1272;69013;-75
2021/12/29 02:44:55;;;;;;;38.90;19.20;;;;;;;-4.67;76.92;100810.40;105891;1272;72032;-74
2021/12/29 02:47:24;;;;;;;36.40;20.30;;;;;;;-4.62;77.25;100807.82;105899;1271;59558;-72
2021/12/29 02:49:53;;;;;;;37.80;17.80;;;;;;;-4.53;77.29;100805.86;106085;1271;59576;-71
2021/12/29 02:52:24;;;;;;;36.30;19.10;;;;;;;-4.62;76.33;100793.03;105964;1269;72143;-73
2021/12/29 02:54:53;;;;;;;38.40;18.10;;;;;;;-4.61;76.29;100799.13;105976;1272;72541;-72
2021/12/29 02:57:22;;;;;;;41.10;19.80;;;;;;;-4.62;76.18;100791.33;105763;1272;70346;-72
2021/12/29 02:59:51;;;;;;;39.50;19.10;;;;;;;-4.63;76.52;100796.09;105665;1272;74854;-71
2021/12/29 03:02:21;;;;;;;41.30;19.20;;;;;;;-4.60;76.87;100793.70;105812;1268;63271;-70
2021/12/29 03:04:50;;;;;;;40.10;19.10;;;;;;;-4.60;76.73;100792.67;106043;1271;60496;-73
2021/12/29 03:07:19;;;;;;;36.90;19.70;;;;;;;-4.53;76.13;100791.09;106000;1272;74770;-73
2021/12/29 03:09:48;;;;;;;35.90;18.50;;;;;;;-4.58;76.04;100790.45;106045;1272;72196;-72
2021/12/29 03:12:18;;;;;;;38.40;18.70;;;;;;;-4.58;76.35;100791.80;106020;1271;70742;-72
2021/12/29 03:14:55;;;;;;;36.10;18.10;;;;;;;-4.54;76.05;100791.42;105824;1272;73829;-73
2021/12/29 03:17:24;;;;;;;42.90;19.60;;;;;;;-4.53;76.22;100793.80;106059;1271;62565;-71
2021/12/29 03:19:53;;;;;;;41.70;20.20;;;;;;;-4.56;75.72;100794.16;106008;1271;60125;-72
2021/12/29 03:22:22;;;;;;;47.90;21.10;;;;;;;-4.54;75.96;100799.08;105911;1271;72861;-72
2021/12/29 03:24:51;;;;;;;43.60;20.70;;;;;;;-4.56;75.62;100794.50;105886;1271;70414;-72
2021/12/29 03:27:20;;;;;;;39.80;19.90;;;;;;;-4.56;75.79;100789.06;105811;1271;67941;-72
2021/12/29 03:29:49;;;;;;;39.50;18.80;;;;;;;-4.56;76.21;100788.21;106084;1271;72386;-73
2021/12/29 03:32:34;;;;;;;42.80;19.40;;;;;;;-4.66;76.59;100790.35;105774;1269;60510;-73
2021/12/29 03:35:04;;;;;;;32.30;17.50;;;;;;;-4.62;75.47;100785.89;105892;1272;59788;-72
2021/12/29 03:37:34;;;;;;;37.40;19.20;;;;;;;-4.59;75.97;100781.27;105880;1272;74503;-74
2021/12/29 03:40:05;;;;;;;40.70;18.80;;;;;;;-4.54;75.73;100782.75;105869;1271;72299;-71
2021/12/29 03:42:35;;;;;;;33.20;17.80;;;;;;;-4.51;75.39;100788.68;105931;1273;69261;-72
2021/12/29 03:45:05;;;;;;;40.90;17.80;;;;;;;-4.53;75.31;100786.83;106111;1271;73977;-71
2021/12/29 03:47:34;;;;;;;36.00;18.90;;;;;;;-4.61;76.06;100790.11;106008;1269;61554;-70
2021/12/29 03:50:04;;;;;;;39.50;19.60;;;;;;;-4.59;75.66;100791.13;106096;1271;60108;-72
2021/12/29 03:52:33;;;;;;;39.60;18.50;;;;;;;-4.56;75.53;100792.97;105930;1271;72858;-75
2021/12/29 03:55:04;;;;;;;39.30;19.50;;;;;;;-4.56;75.62;100790.94;106101;1271;71169;-74
2021/12/29 03:57:33;;;;;;;35.10;18.40;;;;;;;-4.59;76.10;100790.80;105981;1271;70612;-78
2021/12/29 04:00:07;;;;;;;39.70;19.10;;;;;;;-4.61;76.55;100790.80;106119;1269;72665;-72
2021/12/29 04:02:38;;;;;;;40.70;20.30;;;;;;;-4.59;76.77;100784.84;106278;1270;60414;-76
2021/12/29 04:05:11;;;;;;;36.70;19.10;;;;;;;-4.53;76.60;100782.75;106114;1271;60455;-75
2021/12/29 04:07:40;;;;;;;32.90;18.00;;;;;;;-4.51;76.22;100781.03;106089;1269;74886;-75
2021/12/29 04:10:10;;;;;;;39.10;18.30;;;;;;;-4.56;75.85;100776.14;106240;1271;71854;-74
2021/12/29 04:12:40;;;;;;;38.10;18.60;;;;;;;-4.57;75.87;100773.94;106225;1269;69150;-78
2021/12/29 04:15:11;;;;;;;38.00;18.50;;;;;;;-4.58;76.19;100771.40;106001;1271;73924;-77
2021/12/29 04:17:41;;;;;;;39.90;18.30;;;;;;;-4.56;75.69;100774.61;106086;1271;60146;-75
2021/12/29 04:23:09;;;;;;;33.10;16.90;;;;;;;-4.63;75.75;100777.57;106353;1271;71841;-70
2021/12/29 04:25:39;;;;;;;33.10;17.30;;;;;;;-4.63;75.31;100777.92;107768;1271;71932;-75
2021/12/29 04:28:14;;;;;;;32.50;16.20;;;;;;;-4.63;75.57;100775.70;106166;1268;70607;-75
2021/12/29 04:30:43;;;;;;;35.30;17.90;;;;;;;-4.63;75.87;100774.16;106054;1269;72563;-72
2021/12/29 04:33:12;;;;;;;33.90;17.60;;;;;;;-4.66;76.12;100779.64;106011;1271;60609;-71
2021/12/29 04:35:41;;;;;;;29.50;15.80;;;;;;;-4.66;76.09;100780.48;106065;1271;60744;-71
2021/12/29 04:38:10;;;;;;;32.30;16.10;;;;;;;-4.63;75.59;100775.53;105969;1271;72855;-70
2021/12/29 04:40:39;;;;;;;34.90;17.90;;;;;;;-4.65;75.47;100769.42;106082;1271;69640;-69
2021/12/29 04:43:09;;;;;;;32.40;16.40;;;;;;;-4.67;75.59;100771.15;106092;1268;70170;-74
2021/12/29 04:45:38;;;;;;;25.50;13.20;;;;;;;-4.66;75.84;100772.67;106083;1270;74018;-73
2021/12/29 04:48:12;;;;;;;26.90;12.60;;;;;;;-4.68;74.23;100781.02;105861;1271;59666;-73
2021/12/29 04:50:50;;;;;;;20.40;10.20;;;;;;;-4.68;73.90;100780.67;105862;1271;60122;-72
2021/12/29 04:53:24;;;;;;;17.80;10.10;;;;;;;-4.70;72.77;100781.70;105975;1270;72483;-72
2021/12/29 04:55:54;;;;;;;20.20;10.60;;;;;;;-4.74;72.86;100786.67;105990;1271;73341;-75
2021/12/29 04:58:24;;;;;;;27.10;13.30;;;;;;;-4.69;73.38;100786.12;106098;1271;69278;-75
2021/12/29 05:00:54;;;;;;;29.10;15.80;;;;;;;-4.70;74.40;100793.27;106037;1271;71588;-76
2021/12/29 05:03:24;;;;;;;31.20;15.90;;;;;;;-4.70;75.15;100802.27;105985;1270;59679;-72
2021/12/29 05:08:24;;;;;;;34.90;16.90;;;;;;;-4.74;74.96;100802.30;106011;1271;61377;-71
2021/12/29 05:08:45;;;;;;;43.50;20.90;;;;;;;-4.74;75.67;100794.66;105932;1271;72171;-72
2021/12/29 05:11:15;;;;;;;35.30;17.30;;;;;;;-4.76;76.58;100797.57;105879;1273;70353;-71
2021/12/29 05:13:45;;;;;;;34.20;18.00;;;;;;;-4.72;76.21;100793.11;105967;1272;69781;-71
2021/12/29 05:16:13;;;;;;;34.00;17.70;;;;;;;-4.71;75.90;100795.48;105827;1272;73739;-69
2021/12/29 05:18:45;;;;;;;36.20;17.00;;;;;;;-4.73;76.11;100793.30;105857;1271;61082;-69
2021/12/29 05:21:14;;;;;;;41.40;18.40;;;;;;;-4.67;76.20;100796.98;105713;1272;449812;-71
2021/12/29 05:23:43;;;;;;;36.40;17.40;;;;;;;-4.69;76.57;100793.42;106077;1269;74440;-70
2021/12/29 05:26:12;;;;;;;39.10;19.10;;;;;;;-4.71;76.28;100795.32;106092;1271;72052;-70
2021/12/29 05:28:41;;;;;;;39.40;19.10;;;;;;;-4.70;76.29;100797.17;106017;1272;69236;-70
2021/12/29 05:31:11;;;;;;;36.50;18.20;;;;;;;-4.67;76.49;100798.00;105917;1273;71976;-72
2021/12/29 05:33:41;;;;;;;36.60;19.70;;;;;;;-4.65;75.99;100805.11;105894;1272;59687;-71
2021/12/29 05:36:10;;;;;;;35.90;18.50;;;;;;;-4.65;76.15;100804.11;105890;1272;61068;-71
2021/12/29 05:38:39;;;;;;;41.50;19.40;;;;;;;-4.67;76.46;100811.77;105855;1272;74254;-71
2021/12/29 05:41:08;;;;;;;35.80;16.30;;;;;;;-4.63;76.11;100807.30;105962;1270;70764;-69
2021/12/29 05:43:37;;;;;;;43.10;21.80;;;;;;;-4.66;76.50;100811.43;105935;1273;68015;-69
2021/12/29 05:46:07;;;;;;;46.00;21.70;;;;;;;-4.65;78.26;100812.77;105901;1273;72281;-71
2021/12/29 05:48:36;;;;;;;39.00;20.70;;;;;;;-4.65;76.63;100814.46;105966;1272;60496;-70
2021/12/29 05:51:06;;;;;;;41.00;20.80;;;;;;;-4.67;76.47;100819.59;105805;1274;59366;-70
2021/12/29 05:53:35;;;;;;;45.40;23.10;;;;;;;-4.71;76.74;100822.84;105792;1273;74178;-71
2021/12/29 05:56:04;;;;;;;42.60;20.30;;;;;;;-4.73;76.91;100832.88;105810;1272;72763;-71
2021/12/29 05:58:37;;;;;;;41.50;21.50;;;;;;;-4.76;77.08;100837.01;105688;1273;69216;-71
2021/12/29 06:01:09;;;;;;;41.30;21.50;;;;;;;-4.73;76.73;100838.83;105642;1273;75300;-71
2021/12/29 06:03:39;;;;;;;43.40;20.90;;;;;;;-4.72;76.10;100842.56;105740;1273;60852;-71
2021/12/29 06:06:08;;;;;;;44.10;21.10;;;;;;;-4.73;76.35;100844.10;105808;1273;60197;-68
2021/12/29 06:08:37;;;;;;;39.80;19.90;;;;;;;-4.86;76.48;100843.69;105741;1273;72932;-71
2021/12/29 06:11:06;;;;;;;49.50;21.50;;;;;;;-4.86;76.76;100847.77;105821;1269;70748;-70
2021/12/29 06:13:35;;;;;;;36.90;18.00;;;;;;;-4.89;77.20;100842.69;105834;1272;69130;-69
2021/12/29 06:16:04;;;;;;;42.20;19.00;;;;;;;-4.85;76.73;100844.02;105913;1271;72352;-69
2021/12/29 06:18:34;;;;;;;40.20;20.70;;;;;;;-4.75;76.67;100845.30;105920;1271;62684;-72
2021/12/29 06:21:03;;;;;;;41.40;19.70;;;;;;;-4.80;76.62;100842.95;105869;1269;61184;-72
2021/12/29 06:23:32;;;;;;;34.90;17.50;;;;;;;-4.77;76.41;100838.19;105960;1272;74482;-70
2021/12/29 06:26:01;;;;;;;39.60;20.60;;;;;;;-4.79;76.63;100838.19;105531;1272;71064;-70
2021/12/29 06:28:30;;;;;;;43.20;18.00;;;;;;;-4.80;76.99;100835.15;105697;1272;69498;-71
2021/12/29 06:30:59;;;;;;;46.90;21.20;;;;;;;-4.79;77.04;100837.69;105853;1272;75470;-72
2021/12/29 06:33:29;;;;;;;34.90;19.90;;;;;;;-4.66;77.12;100838.10;105857;1272;61309;-75
2021/12/29 06:35:58;;;;;;;36.10;19.40;;;;;;;-4.64;77.14;100840.14;105746;1271;62380;-74
2021/12/29 06:38:27;;;;;;;36.00;19.60;;;;;;;-4.55;76.79;100839.70;105934;1271;72210;-73
2021/12/29 06:40:56;;;;;;;43.30;21.50;;;;;;;-4.54;76.63;100838.68;105927;1272;69955;-74
2021/12/29 06:43:25;;;;;;;38.70;19.10;;;;;;;-4.52;76.59;100841.55;105953;1272;69088;-74
2021/12/29 06:45:54;;;;;;;35.80;18.60;;;;;;;-4.51;75.90;100835.44;105745;1272;71539;-73
2021/12/29 06:48:24;;;;;;;40.50;21.00;;;;;;;-4.47;76.19;100834.38;105745;1272;59014;-73
2021/12/29 06:50:53;;;;;;;38.30;20.20;;;;;;;-4.48;75.54;100835.58;106038;1269;61323;-73
2021/12/29 06:53:22;;;;;;;36.00;18.70;;;;;;;-4.54;75.16;100844.13;105862;1271;73286;-75
2021/12/29 06:55:51;;;;;;;37.80;18.80;;;;;;;-4.49;75.29;100842.05;105853;1272;70772;-73
2021/12/29 06:58:20;;;;;;;38.40;18.60;;;;;;;-4.48;75.39;100844.24;105882;1272;68753;-73
2021/12/29 07:00:50;;;;;;;36.70;17.90;;;;;;;-4.48;74.78;100837.10;105823;1272;73774;-74
2021/12/29 07:03:20;;;;;;;36.00;16.30;;;;;;;-4.51;75.19;100835.94;105757;1271;58837;-75
2021/12/29 07:05:49;;;;;;;37.40;18.60;;;;;;;-4.45;74.87;100833.84;106020;1268;60270;-72
2021/12/29 07:08:18;;;;;;;38.80;18.60;;;;;;;-4.45;75.14;100829.08;106054;1269;72610;-70
2021/12/29 07:10:48;;;;;;;37.80;19.50;;;;;;;-4.49;74.66;100834.73;105880;1269;69669;-71
2021/12/29 07:13:17;;;;;;;34.60;16.50;;;;;;;-4.52;74.39;100830.17;105903;1271;67958;-70
2021/12/29 07:15:48;;;;;;;42.70;19.90;;;;;;;-4.49;74.79;100831.84;105863;1272;74031;-72
2021/12/29 07:18:18;;;;;;;34.60;16.50;;;;;;;-4.48;74.87;100829.96;105783;1272;62380;-70
2021/12/29 07:20:46;;;;;;;36.10;17.50;;;;;;;-4.41;74.08;100824.98;105894;1272;61886;-71
2021/12/29 07:23:16;;;;;;;34.30;17.90;;;;;;;-4.35;74.01;100824.23;105939;1271;75468;-73
2021/12/29 07:25:45;;;;;;;36.40;18.70;;;;;;;-4.33;73.91;100825.74;106005;1272;73093;-74
2021/12/29 07:28:15;;;;;;;27.10;15.20;;;;;;;-4.31;73.70;100827.41;105866;1269;70986;-70
2021/12/29 07:30:44;;;;;;;35.30;18.10;;;;;;;-4.25;74.46;100831.12;105756;1272;75196;-71
2021/12/29 07:33:14;;;;;;;33.90;17.70;;;;;;;-4.26;73.66;100826.36;105694;1271;60150;-71
2021/12/29 07:35:45;;;;;;;32.20;17.00;;;;;;;-4.28;73.82;100828.08;105720;1272;60997;-72
2021/12/29 07:38:14;;;;;;;26.40;13.40;;;;;;;-4.25;73.56;100824.66;106045;1270;76109;-70
2021/12/29 07:40:43;;;;;;;33.60;17.70;;;;;;;-4.22;73.52;100822.24;106018;1271;73138;-72
2021/12/29 07:43:14;;;;;;;42.90;19.10;;;;;;;-4.30;74.17;100824.87;106078;1269;68170;-71
2021/12/29 07:45:44;;;;;;;37.30;17.20;;;;;;;-4.27;74.14;100826.02;105882;1266;74317;-71
2021/12/29 07:48:14;;;;;;;38.60;17.20;;;;;;;-4.20;73.66;100820.70;106023;1269;61035;-71
2021/12/29 07:50:44;;;;;;;37.60;20.00;;;;;;;-4.26;73.47;100817.52;105963;1271;60783;-72
2021/12/29 07:53:15;;;;;;;41.00;21.40;;;;;;;-4.17;73.78;100820.65;105954;1271;74908;-71
2021/12/29 07:55:43;;;;;;;34.70;18.60;;;;;;;-4.22;72.91;100823.42;106177;1270;72975;-71
2021/12/29 07:58:13;;;;;;;42.00;20.80;;;;;;;-4.18;73.25;100825.95;106156;1268;71509;-71
2021/12/29 08:00:44;;;;;;;34.80;18.00;;;;;;;-4.17;74.01;100825.09;106103;1269;71708;-72
2021/12/29 08:03:14;;;;;;;35.50;19.90;;;;;;;-4.14;74.46;100823.19;106058;1271;59017;-72
2021/12/29 08:05:45;;;;;;;32.70;17.40;;;;;;;-4.02;73.68;100820.16;106003;1271;61409;-69
2021/12/29 08:08:13;;;;;;;37.50;18.20;;;;;;;-4.09;73.15;100815.30;105955;1272;74010;-70
2021/12/29 08:10:43;;;;;;;38.80;19.30;;;;;;;-4.10;73.17;100822.63;106114;1271;72835;-72
2021/12/29 08:13:13;;;;;;;37.50;17.50;;;;;;;-4.15;73.45;100824.89;106030;1271;71852;-72
2021/12/29 08:15:43;;;;;;;42.10;20.20;;;;;;;-4.17;73.27;100831.70;105913;1272;71653;-72
2021/12/29 08:18:12;;;;;;;40.50;19.90;;;;;;;-4.21;74.01;100831.06;105873;1269;60547;-71
2021/12/29 08:20:42;;;;;;;43.40;22.50;;;;;;;-4.18;74.92;100832.23;105750;1273;62350;-72
2021/12/29 08:23:12;;;;;;;44.40;22.40;;;;;;;-4.20;74.53;100830.55;106045;1269;74351;-71
2021/12/29 08:25:41;;;;;;;44.10;23.40;;;;;;;-4.09;74.40;100826.52;106046;1269;71003;-72
2021/12/29 08:28:10;;;;;;;42.20;22.00;;;;;;;-4.06;75.16;100824.79;105998;1272;68282;-72
2021/12/29 08:30:40;;;;;;;45.70;23.10;;;;;;;-4.07;73.89;100823.27;107031;1273;72047;-73
2021/12/29 08:33:10;;;;;;;45.80;23.10;;;;;;;-4.08;74.20;100818.52;106005;1270;58997;-71
2021/12/29 08:35:40;;;;;;;42.20;24.60;;;;;;;-4.01;75.10;100820.15;105913;1273;61739;-71
2021/12/29 08:38:08;;;;;;;52.00;23.70;;;;;;;-3.95;73.82;100818.55;105911;1269;74572;-73
2021/12/29 08:40:38;;;;;;;51.40;24.20;;;;;;;-4.00;73.61;100813.34;105954;1272;71529;-73
2021/12/29 08:43:06;;;;;;;41.40;24.00;;;;;;;-4.12;74.55;100811.92;105787;1271;70204;-72
2021/12/29 08:45:37;;;;;;;48.50;24.00;;;;;;;-3.96;74.41;100814.81;105934;1272;74344;-70
2021/12/29 08:48:06;;;;;;;48.40;23.10;;;;;;;-4.00;74.85;100815.38;105898;1273;60938;-71
2021/12/29 08:50:36;;;;;;;40.30;20.70;;;;;;;-4.08;74.73;100817.84;105855;1269;59518;-73
2021/12/29 08:53:07;;;;;;;40.40;19.90;;;;;;;-3.96;74.99;100818.06;105821;1272;72678;-72
2021/12/29 08:55:39;;;;;;;33.10;16.60;;;;;;;-4.08;74.26;100819.54;105793;1272;72137;-70
2021/12/29 08:58:08;;;;;;;41.70;20.10;;;;;;;-4.04;73.80;100815.92;105968;1270;68398;-71
2021/12/29 09:00:37;;;;;;;31.20;16.20;;;;;;;-3.94;74.29;100814.45;106213;1272;72383;-69
2021/12/29 09:03:07;;;;;;;28.60;14.00;;;;;;;-3.92;74.61;100810.36;105760;1273;59919;-72
2021/12/29 09:05:36;;;;;;;27.60;15.00;;;;;;;-3.90;73.36;100808.64;105731;1272;61408;-74
2021/12/29 09:08:06;;;;;;;20.80;9.80;;;;;;;-3.68;72.79;100811.08;105858;1269;72954;-73
2021/12/29 09:10:36;;;;;;;22.50;11.30;;;;;;;-3.54;72.49;100812.80;105924;1271;69679;-74
2021/12/29 09:13:05;;;;;;;29.30;14.00;;;;;;;-3.52;71.51;100806.63;105786;1272;69045;-74
2021/12/29 09:15:34;;;;;;;26.30;14.60;;;;;;;-3.94;72.30;100807.82;105684;1269;71436;-72
2021/12/29 09:18:04;;;;;;;31.30;15.60;;;;;;;-4.12;73.68;100803.59;105758;1272;60474;-72
2021/12/29 09:20:37;;;;;;;26.20;13.90;;;;;;;-4.01;72.91;100806.89;105777;1272;60139;-80
2021/12/29 09:23:08;;;;;;;28.90;15.60;;;;;;;-3.95;72.91;100805.27;105660;1272;74484;-69
2021/12/29 09:25:39;;;;;;;26.50;12.40;;;;;;;-3.83;73.01;100806.15;105654;1272;72407;-71
2021/12/29 09:28:11;;;;;;;26.60;15.70;;;;;;;-3.68;72.49;100804.61;105700;1269;69392;-70
2021/12/29 09:30:43;;;;;;;27.00;15.10;;;;;;;-3.78;72.53;100804.74;105884;1271;70968;-71
2021/12/29 09:33:15;;;;;;;25.60;14.10;;;;;;;-4.26;73.32;100806.63;105981;1264;59715;-71
2021/12/29 09:35:47;;;;;;;25.50;15.20;;;;;;;-4.16;73.44;100808.21;105841;1271;58982;-72
2021/12/29 09:38:19;;;;;;;30.00;16.10;;;;;;;-3.93;73.60;100805.09;105982;1269;72764;-71
2021/12/29 09:40:50;;;;;;;29.20;15.40;;;;;;;-4.05;74.22;100801.64;106023;1269;70849;-71
2021/12/29 09:43:19;;;;;;;29.60;15.50;;;;;;;-3.98;73.80;100800.38;105788;1271;68650;-71
2021/12/29 09:45:50;;;;;;;30.50;15.90;;;;;;;-4.03;73.72;100793.47;105969;1272;73048;-71
2021/12/29 09:48:19;;;;;;;30.70;15.90;;;;;;;-4.21;73.87;100784.82;105875;1269;59694;-69
2021/12/29 09:50:50;;;;;;;26.30;13.80;;;;;;;-4.18;74.53;100780.19;105751;1271;60612;-69
2021/12/29 09:53:20;;;;;;;29.00;15.50;;;;;;;-4.06;75.04;100775.98;105787;1271;74492;-70
2021/12/29 09:55:49;;;;;;;31.50;15.90;;;;;;;-4.09;74.19;100769.55;105779;1269;72359;-71
2021/12/29 09:58:19;;;;;;;27.20;14.40;;;;;;;-4.22;74.49;100769.86;105956;1271;71051;-71
2021/12/29 10:00:56;;;;;;;30.80;17.00;;;;;;;-4.35;74.95;100768.64;105941;1269;71722;-70
2021/12/29 10:03:28;;;;;;;27.10;14.90;;;;;;;-4.38;75.06;100761.52;105898;1271;59687;-69
2021/12/29 10:06:01;;;;;;;29.10;15.70;;;;;;;-4.33;75.66;100758.24;105873;1269;60525;-68
2021/12/29 10:08:41;;;;;;;28.00;14.10;;;;;;;-4.30;75.15;100750.02;108091;1270;73371;-70
2021/12/29 10:11:24;;;;;;;29.60;14.70;;;;;;;-4.15;74.95;100740.52;108225;1271;73775;-69
2021/12/29 10:13:55;;;;;;;31.70;17.30;;;;;;;-3.93;74.88;100740.09;105904;1269;69274;-70
2021/12/29 10:16:29;;;;;;;28.10;14.20;;;;;;;-4.01;74.50;100736.46;105904;1270;74378;-71
2021/12/29 10:19:00;;;;;;;25.60;14.30;;;;;;;-3.92;74.46;100735.32;105955;1269;61810;-70
2021/12/29 10:21:30;;;;;;;28.50;15.10;;;;;;;-3.79;75.20;100733.79;106064;1266;60516;-69
2021/12/29 10:24:01;;;;;;;29.10;16.40;;;;;;;-3.67;73.94;100732.94;106098;1269;73789;-71
2021/12/29 10:26:46;;;;;;;31.90;16.00;;;;;;;-3.71;73.66;100726.36;105852;1269;73280;-69
2021/12/29 10:29:19;;;;;;;27.00;14.00;;;;;;;-3.66;73.73;100722.38;106056;1266;68514;-68
2021/12/29 10:31:58;;;;;;;29.90;15.70;;;;;;;-3.71;73.65;100721.77;105875;1270;72298;-69
2021/12/29 10:34:29;;;;;;;28.30;13.80;;;;;;;-3.62;73.53;100722.49;106001;1269;61085;-69
2021/12/29 10:37:11;;;;;;;25.90;14.50;;;;;;;-3.51;73.64;100722.84;105924;1269;60188;-68
2021/12/29 10:39:45;;;;;;;27.00;14.70;;;;;;;-3.48;73.18;100714.97;105950;1269;74466;-71
2021/12/29 10:42:20;;;;;;;29.30;15.50;;;;;;;-3.56;73.70;100716.45;106051;1269;69453;-70
2021/12/29 10:45:00;;;;;;;35.10;16.30;;;;;;;-3.58;73.54;100717.66;106080;1269;68279;-69
2021/12/29 10:47:36;;;;;;;30.60;16.90;;;;;;;-3.71;73.94;100715.98;105957;1270;72020;-69
2021/12/29 10:50:09;;;;;;;28.10;16.20;;;;;;;-3.96;74.78;100716.64;106096;1265;58982;-68
2021/12/29 10:52:46;;;;;;;28.90;14.60;;;;;;;-3.87;74.61;100711.94;106144;1268;60501;-69
2021/12/29 10:55:35;;;;;;;31.20;15.70;;;;;;;-3.74;74.56;100707.52;106080;1266;71724;-70
2021/12/29 10:58:09;;;;;;;33.10;17.70;;;;;;;-3.59;74.26;100707.98;105973;1269;72614;-69
2021/12/29 11:01:06;;;;;;;32.90;16.80;;;;;;;-3.57;74.03;100707.79;106009;1266;68733;-71
2021/12/29 11:03:49;;;;;;;30.70;15.80;;;;;;;-3.59;74.44;100704.57;105673;1271;73259;-69
2021/12/29 11:06:23;;;;;;;30.80;14.30;;;;;;;-3.54;74.11;100704.98;105885;1270;59586;-70
2021/12/29 11:08:59;;;;;;;36.40;18.70;;;;;;;-3.43;74.00;100701.95;105867;1271;61299;-70
2021/12/29 11:11:40;;;;;;;36.40;18.10;;;;;;;-3.31;74.38;100700.42;105841;1269;75693;-68
2021/12/29 11:14:16;;;;;;;40.80;18.90;;;;;;;-3.22;74.26;100702.81;105910;1269;70508;-69
2021/12/29 11:16:52;;;;;;;40.50;19.50;;;;;;;-3.27;73.70;100704.44;105936;1270;69123;-68
2021/12/29 11:19:22;;;;;;;36.10;17.80;;;;;;;-3.48;74.73;100701.52;105897;1267;73171;-68
2021/12/29 11:21:52;;;;;;;36.90;19.40;;;;;;;-3.45;74.85;100702.50;106043;1269;60139;-68
2021/12/29 11:24:23;;;;;;;40.40;19.40;;;;;;;-3.55;75.04;100707.23;105929;1270;60880;-69
2021/12/29 11:26:52;;;;;;;40.00;20.20;;;;;;;-3.55;76.36;100708.60;106117;1270;72977;-68